Time;durP1;ratioP1;P1;durP2;ratioP2;P2;SDS_P1;SDS_P2;PMS_P1;PMS_P2;Temp;Humidity;BMP_temperature;BMP_pressure;BME280_temperature;BME280_humidity;BME280_pressure;Samples;Min_cycle;Max_cycle;Signal;HPM_P1;HPM_P2
2022/07/16 00:01:22;;;;;;;4.15;2.53;;;15.70;99.90;;;;;;4119913;28;20051;-82
2022/07/16 00:01:28;;;;;;;4.47;2.17;;;15.70;99.90;;;;;;4138518;28;20185;-83
2022/07/16 00:03:33;;;;;;;4.63;2.17;;;15.70;99.90;;;;;;4137847;28;20491;-81
2022/07/16 00:05:34;;;;;;;8.35;2.50;;;15.70;99.90;;;;;;4153584;28;20081;-82
2022/07/16 00:07:34;;;;;;;4.38;2.38;;;15.70;99.90;;;;;;4154628;28;20042;-82
2022/07/16 00:09:35;;;;;;;4.32;1.98;;;15.70;99.90;;;;;;4121697;28;20102;-82
2022/07/16 00:11:36;;;;;;;3.95;2.35;;;15.70;99.90;;;;;;4152077;28;20125;-81
2022/07/16 00:13:36;;;;;;;3.95;2.03;;;15.70;99.90;;;;;;4118759;28;20055;-82
2022/07/16 00:15:37;;;;;;;5.70;2.17;;;15.70;99.90;;;;;;4118259;28;20085;-82
2022/07/16 00:17:38;;;;;;;7.55;2.47;;;15.80;99.90;;;;;;4117362;28;20078;-82
2022/07/16 00:19:39;;;;;;;3.40;1.85;;;15.80;99.90;;;;;;4150431;28;20081;-82
2022/07/16 00:21:40;;;;;;;4.88;2.30;;;15.80;99.90;;;;;;4133511;28;20129;-82
2022/07/16 00:23:41;;;;;;;5.72;2.30;;;15.80;99.90;;;;;;4149207;28;20050;-82
2022/07/16 00:25:42;;;;;;;6.07;2.35;;;15.80;99.90;;;;;;4134810;28;20046;-83
2022/07/16 00:27:42;;;;;;;8.70;2.33;;;15.80;99.90;;;;;;4133865;28;20057;-82
2022/07/16 00:29:43;;;;;;;10.07;4.45;;;15.80;99.90;;;;;;4132769;28;20410;-82
2022/07/16 00:31:46;;;;;;;3.70;2.20;;;15.80;99.90;;;;;;4115026;28;20438;-82
2022/07/16 00:33:46;;;;;;;3.53;1.98;;;15.80;99.90;;;;;;4132600;28;20545;-82
2022/07/16 00:35:47;;;;;;;3.42;1.85;;;15.80;99.90;;;;;;4115070;28;20053;-82
2022/07/16 00:37:48;;;;;;;4.10;1.85;;;15.70;99.90;;;;;;4115044;28;20047;-82
2022/07/16 00:39:48;;;;;;;3.83;1.42;;;15.70;99.90;;;;;;4132081;28;20070;-82
2022/07/16 00:41:49;;;;;;;6.22;1.60;;;15.70;99.90;;;;;;4131977;28;20113;-82
2022/07/16 00:43:56;;;;;;;2.90;1.30;;;15.70;99.90;;;;;;4132162;28;20049;-82
2022/07/16 00:45:56;;;;;;;2.88;1.20;;;15.60;99.90;;;;;;4114810;28;20054;-81
2022/07/16 00:47:57;;;;;;;3.50;1.13;;;15.60;99.90;;;;;;4132331;28;20049;-81
2022/07/16 00:49:58;;;;;;;4.30;1.30;;;15.60;99.90;;;;;;4098851;29;20054;-82
2022/07/16 00:51:58;;;;;;;4.03;1.20;;;15.50;99.90;;;;;;4147159;28;20054;-82
2022/07/16 00:53:59;;;;;;;1.40;0.90;;;15.50;99.90;;;;;;4114225;28;20152;-82
2022/07/16 00:56:00;;;;;;;2.58;1.17;;;15.50;99.90;;;;;;4147041;28;20042;-82
2022/07/16 00:58:01;;;;;;;2.47;1.30;;;15.50;99.90;;;;;;4114764;28;20047;-82
2022/07/16 01:00:04;;;;;;;3.78;0.90;;;15.50;99.90;;;;;;4114623;28;20484;-82
2022/07/16 01:02:05;;;;;;;2.08;1.00;;;15.50;99.90;;;;;;4114642;28;20051;-82
2022/07/16 01:04:07;;;;;;;3.08;1.10;;;15.40;99.90;;;;;;4146709;28;20058;-82
2022/07/16 01:06:09;;;;;;;5.35;0.90;;;15.50;99.90;;;;;;4114773;28;20046;-82
2022/07/16 01:08:11;;;;;;;2.10;1.05;;;15.40;99.90;;;;;;4146603;28;20056;-82
2022/07/16 01:10:13;;;;;;;3.63;0.80;;;15.40;99.90;;;;;;4114807;28;20053;-82
2022/07/16 01:12:15;;;;;;;3.20;0.82;;;15.40;99.90;;;;;;4131946;28;20062;-82
2022/07/16 01:14:15;;;;;;;5.28;0.80;;;15.40;99.90;;;;;;4114420;28;20054;-82
2022/07/16 01:16:17;;;;;;;2.90;0.70;;;15.40;99.90;;;;;;4114770;28;20054;-82
2022/07/16 01:18:18;;;;;;;4.13;0.82;;;15.40;99.90;;;;;;4146437;28;20612;-82
2022/07/16 01:20:19;;;;;;;2.00;0.98;;;15.40;99.90;;;;;;4131732;28;20231;-82
2022/07/16 01:22:22;;;;;;;4.53;0.80;;;15.50;99.90;;;;;;4132070;28;20050;-82
2022/07/16 01:24:23;;;;;;;5.63;0.80;;;15.40;99.90;;;;;;4114525;28;20475;-82
2022/07/16 01:26:23;;;;;;;3.65;0.63;;;15.50;99.90;;;;;;4114761;28;20182;-84
2022/07/16 01:28:24;;;;;;;2.60;0.90;;;15.40;99.90;;;;;;4098577;29;20055;-82
2022/07/16 01:30:25;;;;;;;4.88;0.85;;;15.50;99.90;;;;;;4115246;28;20130;-82
2022/07/16 01:32:26;;;;;;;5.60;0.60;;;15.50;99.90;;;;;;4147577;28;20494;-82
2022/07/16 01:34:26;;;;;;;2.05;0.60;;;15.50;99.90;;;;;;4114596;28;20061;-82
2022/07/16 01:36:27;;;;;;;1.25;0.60;;;15.40;99.90;;;;;;4115009;28;20187;-81
2022/07/16 01:38:28;;;;;;;2.88;0.55;;;15.40;99.90;;;;;;4132114;28;20066;-81
2022/07/16 01:40:29;;;;;;;0.90;0.60;;;15.40;99.90;;;;;;4131603;28;20046;-81
2022/07/16 01:42:30;;;;;;;2.83;0.70;;;15.40;99.90;;;;;;4114627;28;20427;-81
2022/07/16 01:44:34;;;;;;;3.63;0.70;;;15.40;99.90;;;;;;4114238;28;20464;-81
2022/07/16 01:46:35;;;;;;;4.78;1.15;;;15.40;99.90;;;;;;4131586;28;20053;-81
2022/07/16 01:48:36;;;;;;;4.07;0.70;;;15.50;99.90;;;;;;4131401;28;20124;-81
2022/07/16 01:50:36;;;;;;;4.97;1.30;;;15.40;99.90;;;;;;4114076;28;20047;-81
2022/07/16 01:52:37;;;;;;;3.53;0.70;;;15.40;99.90;;;;;;4130711;28;20125;-81
2022/07/16 01:54:42;;;;;;;2.97;0.70;;;15.50;99.90;;;;;;4130981;28;20308;-82
2022/07/16 01:56:43;;;;;;;6.80;2.17;;;15.50;99.90;;;;;;4114502;28;20046;-82
2022/07/16 01:58:44;;;;;;;3.65;1.15;;;15.40;99.90;;;;;;4113948;28;20114;-81
2022/07/16 02:00:45;;;;;;;9.63;0.85;;;15.40;99.90;;;;;;4098147;29;20127;-82
2022/07/16 02:02:46;;;;;;;3.45;1.20;;;15.40;99.90;;;;;;4131335;28;20093;-81
2022/07/16 02:04:47;;;;;;;3.65;0.73;;;15.40;99.90;;;;;;4114310;28;20055;-81
2022/07/16 02:06:47;;;;;;;3.55;0.90;;;15.40;99.90;;;;;;4116343;28;20057;-81
2022/07/16 02:08:48;;;;;;;2.25;1.15;;;15.40;99.90;;;;;;4113865;28;20054;-81
2022/07/16 02:10:49;;;;;;;5.10;0.90;;;15.40;99.90;;;;;;4131414;28;20050;-81
2022/07/16 02:12:49;;;;;;;2.40;0.85;;;15.30;99.90;;;;;;4114400;28;20047;-81
2022/07/16 02:14:50;;;;;;;2.22;0.70;;;15.30;99.90;;;;;;4114573;28;20054;-80
2022/07/16 02:16:52;;;;;;;3.13;0.80;;;15.30;99.90;;;;;;4131784;28;20475;-82
2022/07/16 02:18:52;;;;;;;1.83;0.73;;;15.30;99.90;;;;;;4113911;28;20054;-82
2022/07/16 02:20:53;;;;;;;3.35;0.90;;;15.20;99.90;;;;;;4098765;29;20047;-81
2022/07/16 02:22:55;;;;;;;4.40;1.00;;;15.20;99.90;;;;;;4131712;28;20088;-82
2022/07/16 02:24:56;;;;;;;2.80;0.70;;;15.20;99.90;;;;;;4114403;28;20435;-82
2022/07/16 02:26:57;;;;;;;3.25;1.00;;;15.10;99.90;;;;;;4114364;28;20055;-82
2022/07/16 02:28:57;;;;;;;2.03;0.80;;;15.10;99.90;;;;;;4146358;28;20116;-82
2022/07/16 02:30:58;;;;;;;1.55;0.70;;;15.10;99.90;;;;;;4131342;28;20054;-82
2022/07/16 02:32:59;;;;;;;2.25;1.00;;;15.10;99.90;;;;;;4114394;28;20050;-82
2022/07/16 02:35:00;;;;;;;4.15;2.00;;;15.00;99.90;;;;;;4146595;28;20049;-82
2022/07/16 02:37:02;;;;;;;2.55;0.98;;;15.00;99.90;;;;;;4131142;28;20046;-82
2022/07/16 02:39:02;;;;;;;3.72;0.90;;;15.00;99.90;;;;;;4113699;28;20063;-82
2022/07/16 02:41:04;;;;;;;5.38;1.20;;;15.00;99.90;;;;;;4130107;28;20050;-82
2022/07/16 02:43:06;;;;;;;2.42;1.17;;;15.00;99.90;;;;;;4131704;28;20046;-82
2022/07/16 02:45:07;;;;;;;6.47;1.25;;;14.90;99.90;;;;;;4113976;28;20438;-81
2022/07/16 02:47:09;;;;;;;2.80;1.05;;;14.80;99.90;;;;;;4131530;28;20443;-82
2022/07/16 02:49:10;;;;;;;4.30;1.00;;;14.80;99.90;;;;;;4114358;28;20101;-82
2022/07/16 02:51:10;;;;;;;5.70;1.40;;;14.80;99.90;;;;;;4131146;28;20042;-81
2022/07/16 02:53:11;;;;;;;4.82;0.90;;;14.70;99.90;;;;;;4113965;28;20051;-81
2022/07/16 02:55:12;;;;;;;1.52;0.90;;;14.70;99.90;;;;;;4114018;28;20113;-82
2022/07/16 02:57:13;;;;;;;5.30;1.23;;;14.70;99.90;;;;;;4113974;28;20055;-82
2022/07/16 02:59:14;;;;;;;2.80;1.00;;;14.60;99.90;;;;;;4113634;28;20056;-80
2022/07/16 03:01:16;;;;;;;3.22;1.10;;;14.60;99.90;;;;;;4113990;28;20050;-81
2022/07/16 03:03:16;;;;;;;6.18;1.10;;;14.60;99.90;;;;;;4115682;28;20055;-80
2022/07/16 03:05:18;;;;;;;15.18;2.10;;;14.50;99.90;;;;;;4117118;28;20533;-80
2022/07/16 03:07:18;;;;;;;6.00;0.90;;;14.50;99.90;;;;;;4116962;28;20511;-80
2022/07/16 03:09:19;;;;;;;6.25;1.08;;;14.50;99.90;;;;;;4100822;29;20055;-80
2022/07/16 03:11:20;;;;;;;4.78;1.30;;;14.50;99.90;;;;;;4148865;28;20050;-80
2022/07/16 03:13:20;;;;;;;3.38;1.30;;;14.40;99.90;;;;;;4116819;28;20492;-80
2022/07/16 03:15:21;;;;;;;4.80;1.25;;;14.40;99.90;;;;;;4134342;28;20057;-80
2022/07/16 03:17:22;;;;;;;2.05;1.08;;;14.40;99.90;;;;;;4100862;29;20142;-80
2022/07/16 03:19:22;;;;;;;3.20;0.98;;;14.40;99.90;;;;;;4148708;28;20593;-80
2022/07/16 03:21:23;;;;;;;4.90;1.30;;;14.30;99.90;;;;;;4148868;28;20518;-80
2022/07/16 03:23:24;;;;;;;4.18;0.95;;;14.30;99.90;;;;;;4116713;28;20051;-81
2022/07/16 03:25:25;;;;;;;6.28;1.75;;;14.30;99.90;;;;;;4148395;28;20413;-80
2022/07/16 03:27:25;;;;;;;4.45;1.17;;;14.30;99.90;;;;;;4116355;28;20130;-80
2022/07/16 03:29:27;;;;;;;3.75;0.95;;;14.30;99.90;;;;;;4133699;28;20049;-80
2022/07/16 03:31:28;;;;;;;3.65;1.10;;;14.30;99.90;;;;;;4100209;29;20396;-80
2022/07/16 03:33:29;;;;;;;3.25;1.10;;;14.30;99.90;;;;;;4112316;28;20043;-80
2022/07/16 03:35:31;;;;;;;5.38;1.40;;;14.30;99.90;;;;;;4117393;28;20551;-80
2022/07/16 03:37:33;;;;;;;4.25;1.17;;;14.30;99.90;;;;;;4116159;28;20126;-80
2022/07/16 03:39:33;;;;;;;5.82;1.15;;;14.50;99.90;;;;;;4131966;28;20058;-81
2022/07/16 03:41:36;;;;;;;5.93;1.20;;;14.20;99.90;;;;;;4131917;28;20117;-81
2022/07/16 03:43:36;;;;;;;4.60;1.88;;;14.20;99.90;;;;;;4116941;28;20066;-82
2022/07/16 03:45:37;;;;;;;5.68;1.30;;;14.20;99.90;;;;;;4116552;28;20121;-82
2022/07/16 03:47:38;;;;;;;3.05;1.50;;;14.20;99.90;;;;;;4116988;28;20058;-80
2022/07/16 03:49:38;;;;;;;3.30;1.25;;;14.20;99.90;;;;;;4134250;28;20080;-81
2022/07/16 03:51:39;;;;;;;7.03;1.30;;;14.10;99.90;;;;;;4116153;28;20046;-81
2022/07/16 03:53:40;;;;;;;3.90;1.30;;;14.10;99.90;;;;;;4134174;28;20498;-81
2022/07/16 03:55:41;;;;;;;4.43;1.30;;;14.10;99.90;;;;;;4116865;28;20090;-81
2022/07/16 03:57:42;;;;;;;3.78;1.48;;;14.10;99.90;;;;;;4133769;28;20042;-82
2022/07/16 03:59:43;;;;;;;7.10;1.45;;;14.00;99.90;;;;;;4133909;28;20149;-81
2022/07/16 04:01:44;;;;;;;3.58;1.40;;;14.00;99.90;;;;;;4133987;28;20066;-81
2022/07/16 04:03:44;;;;;;;4.07;1.17;;;14.00;99.90;;;;;;4133719;28;20038;-81
2022/07/16 04:05:45;;;;;;;4.55;1.20;;;14.00;99.90;;;;;;4116125;28;20527;-82
2022/07/16 04:07:46;;;;;;;4.13;1.40;;;13.90;99.90;;;;;;4133783;28;20545;-82
2022/07/16 04:09:46;;;;;;;5.90;1.52;;;13.90;99.90;;;;;;4135000;28;20078;-81
2022/07/16 04:11:47;;;;;;;1.98;1.10;;;13.90;99.90;;;;;;4117271;28;20055;-81
2022/07/16 04:13:48;;;;;;;6.60;1.40;;;13.90;99.90;;;;;;4100223;29;20082;-82
2022/07/16 04:15:48;;;;;;;3.85;1.40;;;13.90;99.90;;;;;;4147831;28;20050;-81
2022/07/16 04:17:49;;;;;;;5.65;1.20;;;13.90;99.90;;;;;;4133113;28;20046;-81
2022/07/16 04:19:50;;;;;;;5.68;1.75;;;13.90;99.90;;;;;;4133470;28;20130;-81
2022/07/16 04:21:52;;;;;;;5.85;1.60;;;13.90;99.90;;;;;;4100819;29;20054;-82
2022/07/16 04:23:52;;;;;;;4.75;1.40;;;13.90;99.90;;;;;;4100401;29;20051;-82
2022/07/16 04:25:53;;;;;;;9.65;2.17;;;13.90;99.90;;;;;;4133074;28;20391;-82
2022/07/16 04:27:54;;;;;;;10.02;1.70;;;13.90;99.90;;;;;;4115672;28;20043;-81
2022/07/16 04:29:54;;;;;;;3.33;0.82;;;14.00;99.90;;;;;;4147971;28;20490;-81
2022/07/16 04:31:55;;;;;;;5.70;1.20;;;14.00;99.90;;;;;;4133854;28;20126;-81
2022/07/16 04:33:56;;;;;;;19.85;1.40;;;14.10;99.90;;;;;;4133211;28;20046;-81
2022/07/16 04:35:56;;;;;;;7.10;1.00;;;14.20;99.90;;;;;;4115788;28;20050;-81
2022/07/16 04:37:57;;;;;;;2.63;1.23;;;14.20;99.90;;;;;;4147483;28;20038;-81
2022/07/16 04:39:58;;;;;;;3.30;1.30;;;14.30;99.90;;;;;;4132667;28;20498;-81
2022/07/16 04:41:59;;;;;;;5.15;0.85;;;14.40;99.90;;;;;;4132824;28;20042;-81
2022/07/16 04:43:59;;;;;;;6.57;0.95;;;14.40;99.90;;;;;;4147501;28;20077;-81
2022/07/16 04:46:00;;;;;;;5.95;1.50;;;14.50;99.90;;;;;;4116168;28;20043;-81
2022/07/16 04:48:01;;;;;;;7.50;1.73;;;14.50;99.90;;;;;;4133449;28;20159;-81
2022/07/16 04:50:02;;;;;;;4.00;1.10;;;14.60;99.90;;;;;;4133884;28;20097;-81
2022/07/16 04:52:03;;;;;;;7.18;1.10;;;14.60;99.90;;;;;;4116973;28;20065;-81
2022/07/16 04:54:03;;;;;;;6.00;0.90;;;14.70;99.90;;;;;;4100238;29;20487;-81
2022/07/16 04:56:04;;;;;;;4.50;1.10;;;14.80;99.90;;;;;;4115498;28;20054;-81
2022/07/16 04:58:05;;;;;;;4.50;1.10;;;14.80;99.90;;;;;;4115279;28;20042;-82
2022/07/16 05:00:06;;;;;;;5.00;0.85;;;14.90;99.90;;;;;;4147826;28;20484;-82
2022/07/16 05:04:31;;;;;;;2.45;0.57;;;15.00;99.90;;;;;;4088250;28;20475;-82
2022/07/16 05:06:31;;;;;;;5.95;0.82;;;15.00;99.90;;;;;;4115182;28;20263;-81
2022/07/16 05:08:32;;;;;;;5.03;0.77;;;15.00;99.90;;;;;;4115195;28;20070;-81
2022/07/16 05:10:33;;;;;;;5.00;0.80;;;15.00;99.90;;;;;;4098997;29;20055;-81
2022/07/16 05:12:34;;;;;;;5.57;0.68;;;15.00;99.90;;;;;;4132240;28;20136;-81
2022/07/16 05:14:34;;;;;;;4.35;1.10;;;15.10;99.90;;;;;;4115032;28;20054;-81
2022/07/16 05:16:36;;;;;;;8.23;0.80;;;15.10;99.90;;;;;;4114833;28;20491;-81
2022/07/16 05:18:37;;;;;;;2.67;0.90;;;15.10;99.90;;;;;;4114345;28;20061;-81
2022/07/16 05:20:37;;;;;;;6.57;0.77;;;15.10;99.90;;;;;;4132008;28;20117;-82
2022/07/16 05:22:38;;;;;;;4.85;0.70;;;15.10;99.90;;;;;;4132557;28;20046;-81
2022/07/16 05:24:39;;;;;;;3.83;0.50;;;15.10;99.90;;;;;;4114522;28;20046;-82
2022/07/16 05:26:39;;;;;;;7.47;0.73;;;15.10;99.90;;;;;;4114675;28;20129;-81
2022/07/16 05:28:41;;;;;;;8.93;0.90;;;15.10;99.90;;;;;;4148142;28;20394;-82
2022/07/16 05:30:42;;;;;;;4.93;0.63;;;15.10;99.90;;;;;;4115286;28;20514;-81
2022/07/16 05:32:45;;;;;;;2.47;0.80;;;15.10;99.90;;;;;;4115651;28;20117;-82
2022/07/16 05:34:46;;;;;;;5.05;1.17;;;15.10;99.90;;;;;;4147704;28;20411;-81
2022/07/16 05:36:47;;;;;;;5.50;0.60;;;15.10;99.90;;;;;;4132844;28;20050;-81
2022/07/16 05:38:48;;;;;;;6.28;1.52;;;15.10;99.90;;;;;;4132575;28;20418;-81
2022/07/16 05:40:50;;;;;;;6.47;1.10;;;15.10;99.90;;;;;;4114895;28;20051;-81
2022/07/16 05:42:50;;;;;;;3.13;0.93;;;15.20;99.90;;;;;;4132480;28;20073;-82
2022/07/16 05:44:51;;;;;;;7.10;0.90;;;15.20;99.90;;;;;;4131668;28;20046;-82
2022/07/16 05:46:52;;;;;;;5.18;1.15;;;15.30;99.90;;;;;;4132638;28;20053;-82
2022/07/16 05:48:53;;;;;;;7.70;0.82;;;15.30;99.90;;;;;;4114912;28;20488;-82
2022/07/16 05:50:54;;;;;;;4.70;1.23;;;15.20;99.90;;;;;;4114882;28;20045;-82
2022/07/16 05:52:54;;;;;;;4.13;0.60;;;15.20;99.90;;;;;;4115079;28;20046;-82
2022/07/16 05:54:55;;;;;;;5.38;0.60;;;15.10;99.90;;;;;;4114842;28;20077;-82
2022/07/16 05:56:56;;;;;;;1.83;1.00;;;15.10;99.90;;;;;;4129025;28;20050;-82
2022/07/16 05:59:02;;;;;;;7.63;1.40;;;15.10;99.90;;;;;;4130956;28;20117;-81
2022/07/16 06:01:02;;;;;;;7.00;0.70;;;15.00;99.90;;;;;;4144525;28;20049;-81
2022/07/16 06:03:03;;;;;;;6.90;1.75;;;15.00;99.90;;;;;;4138022;28;20499;-81
2022/07/16 06:05:04;;;;;;;4.07;1.05;;;15.10;99.90;;;;;;4131566;28;20050;-81
2022/07/16 06:07:05;;;;;;;4.95;0.55;;;15.10;99.90;;;;;;4113674;28;20067;-81
2022/07/16 06:09:05;;;;;;;4.65;0.60;;;15.20;99.90;;;;;;4130943;28;20042;-81
2022/07/16 06:11:06;;;;;;;7.07;0.70;;;15.30;99.90;;;;;;4131459;28;20047;-81
2022/07/16 06:13:07;;;;;;;3.30;0.57;;;15.30;99.90;;;;;;4142570;28;20042;-82
2022/07/16 06:15:10;;;;;;;5.22;1.08;;;15.40;99.90;;;;;;4147268;28;20561;-81
2022/07/16 06:17:11;;;;;;;7.82;0.77;;;15.50;99.90;;;;;;4145503;28;20038;-82
2022/07/16 06:19:13;;;;;;;5.47;0.55;;;15.60;99.90;;;;;;4132152;28;20047;-81
2022/07/16 06:21:13;;;;;;;4.68;1.80;;;15.60;99.90;;;;;;4131589;28;20085;-81
2022/07/16 06:23:14;;;;;;;10.25;1.05;;;15.70;99.90;;;;;;4131331;28;20045;-81
2022/07/16 06:25:15;;;;;;;6.80;0.60;;;15.70;99.90;;;;;;4131089;28;20049;-81
2022/07/16 06:27:15;;;;;;;5.55;0.80;;;15.80;99.90;;;;;;4142205;28;20041;-81
2022/07/16 06:29:18;;;;;;;6.80;0.63;;;15.80;99.90;;;;;;4131874;28;20557;-81
2022/07/16 06:31:19;;;;;;;3.50;0.73;;;15.80;99.90;;;;;;4147075;28;20042;-81
2022/07/16 06:33:19;;;;;;;3.10;0.80;;;15.90;99.90;;;;;;4114432;28;20047;-81
2022/07/16 06:35:20;;;;;;;2.50;0.60;;;15.90;99.90;;;;;;4111885;28;20047;-82
2022/07/16 06:37:21;;;;;;;2.92;0.73;;;16.00;99.90;;;;;;4146542;28;20100;-82
2022/07/16 06:39:22;;;;;;;3.63;1.00;;;16.10;99.90;;;;;;4144712;28;20054;-80
2022/07/16 06:41:23;;;;;;;1.77;0.50;;;16.10;99.90;;;;;;4126730;28;20046;-82
2022/07/16 06:43:23;;;;;;;4.93;0.47;;;16.20;99.90;;;;;;4145208;28;20599;-82
2022/07/16 06:45:24;;;;;;;2.45;0.40;;;16.20;99.90;;;;;;4125571;28;20546;-82
2022/07/16 06:47:26;;;;;;;6.72;1.27;;;16.20;99.90;;;;;;4109755;28;20125;-82
2022/07/16 06:49:27;;;;;;;2.90;0.52;;;16.30;99.90;;;;;;4139106;28;20050;-83
2022/07/16 06:51:28;;;;;;;5.30;0.57;;;16.40;99.90;;;;;;4144098;28;20112;-82
2022/07/16 06:53:28;;;;;;;5.32;0.50;;;16.50;99.90;;;;;;4141279;28;20478;-82
2022/07/16 06:55:29;;;;;;;3.83;0.80;;;16.60;99.90;;;;;;4129881;28;20133;-82
2022/07/16 06:57:30;;;;;;;5.10;0.55;;;16.70;99.90;;;;;;4145783;28;20042;-82
2022/07/16 06:59:31;;;;;;;2.92;0.40;;;16.80;99.70;;;;;;4113958;28;20055;-82
2022/07/16 07:01:32;;;;;;;2.53;0.40;;;16.90;99.30;;;;;;4116322;28;20054;-82
2022/07/16 07:03:33;;;;;;;3.45;0.50;;;16.90;98.90;;;;;;4116935;28;20479;-82
2022/07/16 07:05:34;;;;;;;6.45;0.47;;;17.00;98.60;;;;;;4134159;28;20518;-82
2022/07/16 07:07:34;;;;;;;2.08;0.38;;;17.00;98.40;;;;;;4116663;28;20051;-82
2022/07/16 07:09:35;;;;;;;4.53;0.45;;;17.10;98.30;;;;;;4116348;28;20050;-82
2022/07/16 07:11:36;;;;;;;3.97;0.75;;;17.10;98.10;;;;;;4134628;28;20503;-82
2022/07/16 07:13:38;;;;;;;2.20;0.80;;;17.20;97.50;;;;;;4135769;28;20047;-82
2022/07/16 07:15:38;;;;;;;3.35;0.32;;;17.20;96.90;;;;;;4138998;28;20051;-81
2022/07/16 07:17:39;;;;;;;2.20;0.40;;;17.20;96.60;;;;;;4145623;28;20049;-82
2022/07/16 07:19:40;;;;;;;2.08;0.40;;;17.30;96.20;;;;;;4115979;28;20050;-82
2022/07/16 07:21:40;;;;;;;0.45;0.13;;;17.30;95.90;;;;;;4137198;28;20052;-82
2022/07/16 07:23:41;;;;;;;6.05;0.60;;;17.40;96.00;;;;;;4146421;28;20057;-82
2022/07/16 07:25:42;;;;;;;2.33;0.50;;;17.50;95.90;;;;;;4110244;28;20057;-82
2022/07/16 07:27:43;;;;;;;4.82;0.82;;;17.60;95.70;;;;;;4147472;28;20104;-82
2022/07/16 07:29:43;;;;;;;1.95;0.50;;;17.80;95.40;;;;;;4131303;28;20111;-83
2022/07/16 07:31:44;;;;;;;1.35;0.68;;;17.90;94.90;;;;;;4149648;28;20391;-83
2022/07/16 07:33:46;;;;;;;3.80;0.43;;;18.10;94.90;;;;;;4116653;28;20594;-82
2022/07/16 07:35:47;;;;;;;5.20;1.33;;;18.20;94.50;;;;;;4115537;28;20420;-82
2022/07/16 07:37:48;;;;;;;1.98;0.55;;;18.30;94.20;;;;;;4133171;28;20042;-82
2022/07/16 07:39:48;;;;;;;7.55;0.80;;;18.40;94.10;;;;;;4144473;28;20465;-82
2022/07/16 07:41:50;;;;;;;3.72;0.57;;;18.40;93.90;;;;;;4107441;28;20082;-83
2022/07/16 07:43:51;;;;;;;2.67;0.55;;;18.30;93.80;;;;;;4121334;28;20062;-83
2022/07/16 07:45:52;;;;;;;5.97;0.68;;;18.20;93.90;;;;;;4110896;28;20106;-84
2022/07/16 07:47:53;;;;;;;3.63;0.60;;;18.10;94.10;;;;;;4147971;28;20038;-84
2022/07/16 07:49:54;;;;;;;3.85;0.80;;;18.10;94.30;;;;;;4144231;28;20046;-83
2022/07/16 07:51:55;;;;;;;4.40;0.50;;;18.00;94.60;;;;;;4116743;28;20073;-82
2022/07/16 07:53:55;;;;;;;6.65;0.70;;;17.90;94.70;;;;;;4116719;28;20451;-83
2022/07/16 07:55:57;;;;;;;6.63;0.90;;;17.80;94.80;;;;;;4116460;28;20046;-83
2022/07/16 07:57:59;;;;;;;6.03;1.30;;;17.80;95.00;;;;;;4133928;28;20042;-82
2022/07/16 08:00:03;;;;;;;4.63;0.55;;;17.70;94.70;;;;;;4134190;28;20053;-83
2022/07/16 08:02:04;;;;;;;8.05;0.57;;;17.70;94.70;;;;;;4116733;28;20046;-84
2022/07/16 08:04:05;;;;;;;5.55;0.60;;;17.70;94.60;;;;;;4134097;28;20564;-84
2022/07/16 08:06:06;;;;;;;3.55;0.68;;;17.70;94.60;;;;;;4117030;28;20145;-83
2022/07/16 08:08:07;;;;;;;6.25;0.95;;;17.70;94.60;;;;;;4116934;28;20047;-83
2022/07/16 08:10:08;;;;;;;4.32;0.50;;;17.70;94.70;;;;;;4100055;29;20551;-84
2022/07/16 08:12:09;;;;;;;8.45;0.60;;;17.80;94.60;;;;;;4149145;28;20053;-82
2022/07/16 08:14:10;;;;;;;3.47;0.70;;;17.80;94.40;;;;;;4099810;29;20043;-83
2022/07/16 08:16:11;;;;;;;3.85;0.50;;;17.90;94.30;;;;;;4148212;28;20421;-83
2022/07/16 08:18:11;;;;;;;6.38;1.17;;;17.90;94.00;;;;;;4115729;28;20135;-83
2022/07/16 08:20:13;;;;;;;1.35;0.52;;;18.00;94.10;;;;;;4115908;28;20055;-82
2022/07/16 08:22:14;;;;;;;6.88;0.70;;;18.00;93.90;;;;;;4147910;28;20522;-82
2022/07/16 08:26:35;;;;;;;4.38;0.50;;;18.20;94.00;;;;;;4148543;28;20076;-83
2022/07/16 08:28:40;;;;;;;5.20;0.60;;;18.20;93.80;;;;;;4148516;28;20053;-83
2022/07/16 08:30:44;;;;;;;7.97;0.57;;;18.20;93.90;;;;;;4148303;28;20050;-84
2022/07/16 08:32:45;;;;;;;5.80;1.00;;;18.20;93.90;;;;;;4133342;28;20068;-84
2022/07/16 08:34:46;;;;;;;8.70;1.00;;;18.10;93.80;;;;;;4132707;28;20129;-83
2022/07/16 08:36:46;;;;;;;5.07;0.75;;;18.10;93.80;;;;;;4133223;28;20429;-83
2022/07/16 08:38:47;;;;;;;2.92;0.55;;;18.10;93.90;;;;;;4110399;28;20089;-84
2022/07/16 08:40:49;;;;;;;7.70;1.05;;;18.10;94.00;;;;;;4100763;29;20116;-84
2022/07/16 08:42:50;;;;;;;6.15;1.63;;;18.10;93.70;;;;;;4099652;29;20035;-84
2022/07/16 08:44:52;;;;;;;3.42;0.77;;;18.20;93.50;;;;;;4099558;29;20082;-84
2022/07/16 08:46:54;;;;;;;5.50;0.55;;;18.20;93.30;;;;;;4099650;29;20071;-83
2022/07/16 08:48:57;;;;;;;4.70;1.17;;;18.30;93.20;;;;;;4132762;28;20174;-84
2022/07/16 08:51:00;;;;;;;5.55;0.93;;;18.40;92.60;;;;;;4094645;28;20047;-84
2022/07/16 08:53:02;;;;;;;4.80;0.75;;;18.40;92.60;;;;;;4131998;28;20050;-84
2022/07/16 08:55:04;;;;;;;3.95;1.05;;;18.50;92.70;;;;;;4099825;29;20051;-84
2022/07/16 08:57:05;;;;;;;7.10;1.42;;;18.50;92.70;;;;;;4082870;29;20052;-83
2022/07/16 08:59:06;;;;;;;6.28;1.38;;;18.70;92.30;;;;;;4100297;29;20043;-84
2022/07/16 09:01:07;;;;;;;0.75;0.30;;;18.90;92.30;;;;;;4100201;28;20078;-85
2022/07/16 09:03:07;;;;;;;2.53;0.45;;;19.00;91.90;;;;;;4100980;29;20062;-84
2022/07/16 09:05:08;;;;;;;2.75;0.60;;;19.10;91.40;;;;;;4102178;29;20055;-84
2022/07/16 09:07:16;;;;;;;6.05;0.60;;;19.10;91.00;;;;;;4100356;29;20047;-84
2022/07/16 09:09:18;;;;;;;4.95;0.95;;;19.10;90.50;;;;;;4101157;29;20433;-84
2022/07/16 09:11:22;;;;;;;2.35;0.73;;;19.00;90.50;;;;;;4101237;28;20059;-84
2022/07/16 09:13:24;;;;;;;3.97;0.85;;;19.00;90.60;;;;;;4116063;28;20062;-85
2022/07/16 09:15:30;;;;;;;5.43;1.00;;;18.90;90.50;;;;;;4101115;29;20039;-85
2022/07/16 09:17:30;;;;;;;2.72;0.50;;;19.10;90.60;;;;;;4132187;28;20479;-84
2022/07/16 09:19:31;;;;;;;5.43;0.70;;;19.30;90.50;;;;;;4084105;29;20122;-84
2022/07/16 09:21:33;;;;;;;4.82;0.60;;;19.50;90.20;;;;;;4099986;29;20516;-84
2022/07/16 09:23:36;;;;;;;4.20;0.60;;;19.60;89.60;;;;;;4100292;29;20110;-84
2022/07/16 09:25:47;;;;;;;4.75;0.60;;;19.80;89.30;;;;;;4097008;29;20047;-84
2022/07/16 09:27:57;;;;;;;3.88;0.70;;;20.00;88.80;;;;;;4084981;29;20074;-84
2022/07/16 09:30:03;;;;;;;7.93;1.05;;;20.00;87.70;;;;;;4100113;29;20055;-84
2022/07/16 09:32:04;;;;;;;3.75;0.77;;;20.20;88.20;;;;;;4100125;29;20051;-84
2022/07/16 09:34:10;;;;;;;4.40;0.60;;;19.90;87.40;;;;;;4099643;29;20066;-85
2022/07/16 09:36:12;;;;;;;6.32;1.10;;;20.00;87.70;;;;;;4100854;28;20106;-84
2022/07/16 09:38:13;;;;;;;4.13;0.88;;;20.20;87.40;;;;;;4131802;28;20467;-84
2022/07/16 09:40:27;;;;;;;7.03;0.60;;;20.50;87.40;;;;;;4101443;28;20118;-85
2022/07/16 09:42:38;;;;;;;4.07;0.60;;;20.70;86.80;;;;;;4100473;29;20122;-84
2022/07/16 09:44:42;;;;;;;1.63;0.40;;;20.70;84.40;;;;;;4083630;29;20473;-84
2022/07/16 09:47:03;;;;;;;2.53;0.75;;;20.60;83.90;;;;;;4121650;28;20047;-85
2022/07/16 09:49:04;;;;;;;6.38;0.82;;;20.70;83.90;;;;;;4081683;29;20130;-84
2022/07/16 09:51:18;;;;;;;2.60;1.25;;;20.90;84.40;;;;;;4082752;29;20059;-84
2022/07/16 09:53:21;;;;;;;5.75;0.60;;;;;;;;;;4093122;29;20499;-84
2022/07/16 09:55:23;;;;;;;7.78;1.08;;;;;;;;;;4099260;29;20479;-84
2022/07/16 09:57:27;;;;;;;1.73;0.55;;;;;;;;;;4098974;29;20047;-85
2022/07/16 09:59:28;;;;;;;7.72;0.82;;;;;;;;;;4098488;29;20047;-85
2022/07/16 10:01:29;;;;;;;5.70;0.70;;;;;;;;;;4099826;29;20490;-84
2022/07/16 10:03:30;;;;;;;4.00;0.65;;;;;;;;;;4099795;28;20098;-86
2022/07/16 10:05:31;;;;;;;3.13;0.65;;;;;;;;;;4100069;29;20078;-84
2022/07/16 10:07:33;;;;;;;1.65;0.60;;;;;;;;;;4123447;28;20038;-85
2022/07/16 10:09:34;;;;;;;2.22;0.85;;;;;;;;;;4085215;28;20487;-84
2022/07/16 10:11:35;;;;;;;5.03;1.00;;;;;;;;;;4098762;29;20051;-84
2022/07/16 10:13:37;;;;;;;2.80;0.50;;;;;;;;;;4098816;29;20535;-85
2022/07/16 10:15:39;;;;;;;5.72;0.98;;;;;;;;;;4102604;28;20047;-85
2022/07/16 10:17:40;;;;;;;6.25;0.60;;;;;;;;;;4104121;28;20043;-84
2022/07/16 10:19:42;;;;;;;4.05;0.50;;;;;;;;;;4100680;29;20094;-85
2022/07/16 10:22:18;;;;;;;5.80;0.95;;;21.20;82.10;;;;;;4101382;29;20507;-84
2022/07/16 10:24:18;;;;;;;3.95;0.57;;;22.20;76.70;;;;;;4099919;29;20050;-84
2022/07/16 10:26:22;;;;;;;4.00;0.52;;;22.30;77.60;;;;;;4103868;29;20047;-84
2022/07/16 10:28:59;;;;;;;2.90;0.57;;;22.40;76.90;;;;;;4101092;29;20083;-84
2022/07/16 10:31:40;;;;;;;5.80;0.65;;;22.30;74.50;;;;;;4080161;29;20051;-83
2022/07/16 10:33:40;;;;;;;8.00;0.95;;;22.30;75.80;;;;;;4098529;29;20047;-84
2022/07/16 10:35:47;;;;;;;3.00;0.60;;;22.50;76.80;;;;;;4099797;29;20106;-84
2022/07/16 10:37:48;;;;;;;4.72;1.48;;;22.70;75.90;;;;;;4098689;29;20039;-85
2022/07/16 10:39:59;;;;;;;2.58;0.70;;;22.90;75.50;;;;;;4128020;28;20483;-84